首页
METAR-TAF:

METAR-TAF

机场 :

柏林-泰格尔奥托·利林塔尔机场

柏林, 德国

纬度: 52-34N, 经度: 013-19E, 海拔: 37米

当前天气观测

该预报发布于25分钟前的08:20 UTC
风速12节,风向西
温度 20°C
湿度 68%
气压 1010 hPa
能见度10公里或以上
多云层高于2700英尺

METAR: EDDT 140820Z 27012KT 9999 BKN027 20/14 Q1010 NOSIG

时间: 10:45 (08:45 UTC)

预报

该预报发布于3小时和45分钟前的05:00 UTC
预报有效从14日的 06点(UTC)到 15日的 06点(UTC)
风速7节,风向西
能见度10公里或以上
1500米以下无云,无积雨云
成为
从 14日的 06点(UTC)到 14日的 08点(UTC)
风速12节,风向西
短暂存在
从 14日的 11点(UTC)到 14日的 16点(UTC)
风速15节,风向西,有时为25节阵风
成为
从 14日的 17点(UTC)到 14日的 19点(UTC)
风速7节,风向西

TAF: EDDT 140500Z 1406/1506 26007KT CAVOK BECMG 1406/1408 26012KT TEMPO 1411/1416 27015G25KT BECMG 1417/1419 27007KT

超过4000个机场的气象观测和天气预报(METAR&TAF报告)。

可查询的气象台以黄色和红色小点在地图上表示。

将鼠标移到小点上方,可查看气象台名称。

然后点击查看天气观测和预报。

如需切换地图:点击带黑十字的绿色按钮放大地图;点击带横线的绿色按钮缩小地图;或者点击绿色箭头查看邻近地区的地图。


METAR-TAF: